Time;durP1;ratioP1;P1;durP2;ratioP2;P2;SDS_P1;SDS_P2;PMS_P1;PMS_P2;Temp;Humidity;BMP_temperature;BMP_pressure;BME280_temperature;BME280_humidity;BME280_pressure;Samples;Min_cycle;Max_cycle;Signal;HPM_P1;HPM_P2
2021/05/31 00:02:00;;;;;;;7.00;5.30;;;;;;;11.25;84.52;94513.81;1599431;88;21111;-67
2021/05/31 00:04:27;;;;;;;11.55;5.78;;;;;;;11.28;84.98;94508.77;1616388;87;21058;-67
2021/05/31 00:07:13;;;;;;;11.50;5.75;;;;;;;11.32;84.71;94512.13;1635102;85;21053;-68
2021/05/31 00:09:42;;;;;;;10.32;6.95;;;;;;;11.31;84.59;94513.98;1645948;86;21112;-68
2021/05/31 00:12:14;;;;;;;9.98;6.17;;;;;;;11.29;84.73;94513.05;1648695;85;21127;-67
2021/05/31 00:14:43;;;;;;;6.60;5.50;;;;;;;11.32;85.09;94509.38;1637584;86;21085;-67
2021/05/31 00:17:10;;;;;;;5.25;4.75;;;;;;;11.37;84.90;94508.76;1646959;86;21557;-67
2021/05/31 00:19:37;;;;;;;5.55;4.75;;;;;;;11.33;84.58;94508.77;1654545;85;21564;-67
2021/05/31 00:22:03;;;;;;;7.42;4.58;;;;;;;11.26;84.57;94504.92;1648700;85;21653;-66
2021/05/31 00:24:30;;;;;;;6.75;5.42;;;;;;;11.22;84.66;94505.09;1655498;85;21091;-67
2021/05/31 00:26:57;;;;;;;7.30;4.78;;;;;;;11.23;84.76;94497.58;1638717;86;20981;-68
2021/05/31 00:29:25;;;;;;;5.12;4.55;;;;;;;11.22;84.96;94496.83;1601462;88;21265;-68
2021/05/31 00:31:55;;;;;;;5.62;4.80;;;;;;;11.20;85.26;94492.37;1598982;88;21162;-67
2021/05/31 00:34:23;;;;;;;5.50;4.87;;;;;;;11.23;85.42;94500.34;1599601;87;21159;-68
2021/05/31 00:36:50;;;;;;;7.72;4.90;;;;;;;11.26;85.34;94500.20;1599687;88;21137;-69
2021/05/31 00:39:20;;;;;;;8.28;5.03;;;;;;;11.29;85.62;94506.16;1600148;88;21127;-67
2021/05/31 00:41:49;;;;;;;9.03;5.10;;;;;;;11.31;85.54;94499.58;1604426;87;21090;-67
2021/05/31 00:44:17;;;;;;;6.50;4.70;;;;;;;11.34;85.62;94504.80;1602604;88;21164;-67
2021/05/31 00:46:45;;;;;;;6.40;4.92;;;;;;;11.34;85.29;94504.17;1599399;88;21649;-67
2021/05/31 00:49:15;;;;;;;5.42;4.12;;;;;;;11.32;85.21;94498.98;1616959;86;21134;-68
2021/05/31 00:51:42;;;;;;;6.80;5.10;;;;;;;11.28;85.29;94503.85;1615960;87;21036;-68
2021/05/31 00:54:09;;;;;;;10.63;5.47;;;;;;;11.21;85.49;94501.41;1630062;87;21158;-67
2021/05/31 00:56:37;;;;;;;9.63;5.50;;;;;;;11.20;85.77;94502.00;1647419;86;21550;-68
2021/05/31 00:59:04;;;;;;;6.00;4.47;;;;;;;11.17;85.72;94498.80;1645126;86;21800;-68
2021/05/31 01:01:32;;;;;;;5.17;4.30;;;;;;;11.14;85.38;94495.58;1635709;86;21110;-67
2021/05/31 01:03:59;;;;;;;6.72;4.92;;;;;;;11.10;85.45;94497.72;1631085;87;21062;-67
2021/05/31 01:06:25;;;;;;;6.20;5.08;;;;;;;11.05;85.59;94488.69;1639050;86;21176;-68
2021/05/31 01:09:02;;;;;;;7.97;5.97;;;;;;;11.02;85.89;94490.95;1631762;87;21014;-68
2021/05/31 01:11:57;;;;;;;7.87;6.20;;;;;;;11.04;85.81;94492.67;1620649;87;21283;-68
2021/05/31 01:14:36;;;;;;;8.58;5.75;;;;;;;11.08;85.85;94486.40;1630027;86;21077;-68
2021/05/31 01:17:19;;;;;;;6.53;5.28;;;;;;;11.10;85.85;94481.20;1631352;87;21502;-67
2021/05/31 01:19:57;;;;;;;6.83;5.42;;;;;;;11.13;85.88;94483.03;1636315;86;21170;-67
2021/05/31 01:22:31;;;;;;;7.28;4.78;;;;;;;11.09;85.79;94480.27;1635452;86;21224;-67
2021/05/31 01:25:23;;;;;;;5.85;5.10;;;;;;;11.09;85.83;94486.55;1628534;86;21537;-68
2021/05/31 01:28:35;;;;;;;5.37;4.75;;;;;;;11.04;85.69;94481.66;1625294;86;21517;-68
2021/05/31 01:31:02;;;;;;;4.60;4.20;;;;;;;10.98;85.76;94482.09;1634731;86;21020;-68
2021/05/31 01:33:33;;;;;;;5.15;4.65;;;;;;;10.94;86.10;94483.44;1650510;86;21558;-69
2021/05/31 01:36:00;;;;;;;6.83;5.45;;;;;;;10.92;86.29;94480.38;1653026;85;21107;-66
2021/05/31 01:38:26;;;;;;;4.80;4.30;;;;;;;10.89;86.62;94477.95;1653402;86;21021;-68
2021/05/31 01:40:54;;;;;;;4.65;4.20;;;;;;;10.90;86.73;94475.35;1653167;85;21523;-68
2021/05/31 01:43:21;;;;;;;5.03;4.50;;;;;;;10.91;86.53;94479.63;1653131;86;21095;-68
2021/05/31 01:45:48;;;;;;;4.80;4.30;;;;;;;10.89;86.62;94475.80;1652465;85;21147;-69
2021/05/31 01:48:14;;;;;;;5.45;4.37;;;;;;;10.88;86.89;94479.17;1652308;85;20984;-68
2021/05/31 01:50:41;;;;;;;6.50;4.00;;;;;;;10.88;86.81;94475.05;1642042;86;21720;-67
2021/05/31 01:53:08;;;;;;;5.75;4.70;;;;;;;10.82;86.68;94474.09;1615749;87;21226;-67
2021/05/31 01:55:34;;;;;;;5.62;4.15;;;;;;;10.75;86.90;94474.39;1621377;88;21009;-68
2021/05/31 01:58:01;;;;;;;7.00;4.87;;;;;;;10.70;87.24;94474.84;1621828;88;21037;-67
2021/05/31 02:00:28;;;;;;;5.75;3.83;;;;;;;10.68;87.58;94471.16;1621080;88;21065;-66
2021/05/31 02:02:54;;;;;;;3.98;3.58;;;;;;;10.69;87.70;94474.69;1625495;88;21109;-67
2021/05/31 02:05:21;;;;;;;3.80;3.22;;;;;;;10.68;87.96;94467.03;1625079;88;21033;-66
2021/05/31 02:07:48;;;;;;;4.15;3.65;;;;;;;10.73;88.08;94474.08;1619254;88;21104;-68
2021/05/31 02:10:15;;;;;;;4.90;4.00;;;;;;;10.76;88.07;94471.80;1626014;88;20998;-68
2021/05/31 02:13:00;;;;;;;3.80;3.50;;;;;;;10.80;88.25;94473.79;1624330;86;21485;-67
2021/05/31 02:15:46;;;;;;;3.75;3.45;;;;;;;10.84;88.05;94470.27;1630965;86;21130;-68
2021/05/31 02:18:26;;;;;;;3.98;3.67;;;;;;;10.88;87.83;94470.14;1637829;86;21161;-67
2021/05/31 02:20:58;;;;;;;5.05;4.15;;;;;;;10.90;87.89;94469.07;1638988;87;21487;-67
2021/05/31 02:23:25;;;;;;;7.30;4.00;;;;;;;10.89;87.90;94471.07;1626472;86;21177;-67
2021/05/31 02:25:51;;;;;;;4.97;4.08;;;;;;;10.90;87.81;94467.69;1603792;87;21019;-68
2021/05/31 02:28:18;;;;;;;3.85;3.55;;;;;;;10.84;87.68;94460.64;1636715;86;21122;-68
2021/05/31 02:30:46;;;;;;;5.17;4.17;;;;;;;10.82;87.84;94465.84;1630043;85;21130;-67
2021/05/31 02:33:13;;;;;;;5.05;3.90;;;;;;;10.81;87.87;94467.69;1634585;86;21985;-69
2021/05/31 02:35:40;;;;;;;6.50;4.05;;;;;;;10.80;88.09;94470.28;1633827;86;21702;-68
2021/05/31 02:38:07;;;;;;;3.67;3.37;;;;;;;10.76;88.08;94470.42;1631708;86;21566;-68
2021/05/31 02:40:36;;;;;;;3.40;3.10;;;;;;;10.71;88.26;94468.87;1645329;86;21649;-68
2021/05/31 02:43:05;;;;;;;2.92;2.72;;;;;;;10.69;88.47;94472.69;1618595;87;21014;-68
2021/05/31 02:45:33;;;;;;;3.20;3.00;;;;;;;10.71;88.57;94472.99;1635497;85;21039;-67
2021/05/31 02:47:59;;;;;;;3.45;3.20;;;;;;;10.71;88.56;94463.99;1634546;86;21098;-68
2021/05/31 02:50:29;;;;;;;6.20;3.10;;;;;;;10.71;88.46;94475.00;1628599;86;21628;-68
2021/05/31 02:52:56;;;;;;;3.00;2.80;;;;;;;10.70;88.54;94472.84;1638357;85;21030;-68
2021/05/31 02:55:24;;;;;;;2.60;2.40;;;;;;;10.72;88.71;94471.77;1632767;86;20998;-67
2021/05/31 02:57:51;;;;;;;3.62;2.83;;;;;;;10.75;88.72;94476.36;1641240;85;21049;-67
2021/05/31 03:00:20;;;;;;;3.85;3.45;;;;;;;10.77;88.72;94480.20;1651198;86;21235;-68
2021/05/31 03:02:48;;;;;;;2.83;2.62;;;;;;;10.78;88.74;94476.23;1654359;86;21095;-68
2021/05/31 03:05:21;;;;;;;5.92;2.67;;;;;;;10.78;88.87;94476.86;1651312;86;21121;-68
2021/05/31 03:07:48;;;;;;;2.75;2.55;;;;;;;10.83;89.25;94488.01;1650649;86;21096;-68
2021/05/31 03:10:16;;;;;;;4.08;2.60;;;;;;;10.89;88.86;94486.20;1650605;85;20992;-69
2021/05/31 03:12:43;;;;;;;2.75;2.55;;;;;;;10.90;88.50;94485.58;1651017;85;21007;-68
2021/05/31 03:15:12;;;;;;;2.72;2.60;;;;;;;10.86;88.55;94478.87;1651764;85;21052;-66
2021/05/31 03:17:39;;;;;;;2.47;2.35;;;;;;;10.87;88.12;94488.66;1650548;86;21697;-68
2021/05/31 03:20:07;;;;;;;3.67;2.20;;;;;;;10.87;88.14;94489.25;1651100;85;21462;-68
2021/05/31 03:22:34;;;;;;;2.58;2.20;;;;;;;10.86;87.89;94487.72;1649508;86;20984;-68
2021/05/31 03:25:01;;;;;;;2.50;2.30;;;;;;;10.85;87.55;94491.09;1649696;85;21115;-66
2021/05/31 03:27:29;;;;;;;2.20;1.98;;;;;;;10.83;87.89;94490.01;1634422;86;21140;-68
2021/05/31 03:29:56;;;;;;;2.20;2.10;;;;;;;10.83;87.69;94489.38;1605270;88;21707;-67
2021/05/31 03:32:22;;;;;;;2.10;2.00;;;;;;;10.84;86.87;94492.91;1604245;88;21623;-67
2021/05/31 03:34:49;;;;;;;2.20;2.00;;;;;;;10.86;86.49;94490.47;1599240;88;21140;-67
2021/05/31 03:37:15;;;;;;;3.37;2.50;;;;;;;10.84;85.79;94488.16;1603749;88;21127;-67
2021/05/31 03:39:42;;;;;;;2.02;1.92;;;;;;;10.86;85.93;94494.00;1601170;87;21101;-67
2021/05/31 03:42:09;;;;;;;2.00;1.90;;;;;;;10.90;85.97;94492.46;1651344;86;21079;-67
2021/05/31 03:44:36;;;;;;;1.90;1.80;;;;;;;10.93;85.68;94499.80;1655769;86;22318;-67
2021/05/31 03:47:03;;;;;;;1.90;1.80;;;;;;;10.95;84.69;94500.89;1621449;88;21085;-68
2021/05/31 03:49:30;;;;;;;1.90;1.80;;;;;;;10.92;84.25;94503.19;1653763;85;21330;-68
2021/05/31 03:51:57;;;;;;;2.10;2.00;;;;;;;10.88;83.99;94492.94;1653679;85;21142;-68
2021/05/31 03:54:24;;;;;;;2.00;1.90;;;;;;;10.86;83.94;94506.39;1645221;86;21814;-68
2021/05/31 03:56:51;;;;;;;1.90;1.80;;;;;;;10.84;84.24;94505.30;1649117;86;21080;-68
2021/05/31 03:59:18;;;;;;;2.10;2.00;;;;;;;10.82;83.51;94502.98;1649548;86;21653;-68
2021/05/31 04:01:48;;;;;;;2.00;1.90;;;;;;;10.76;82.83;94506.19;1654437;86;20988;-67
2021/05/31 04:04:14;;;;;;;1.92;1.82;;;;;;;10.69;82.20;94506.33;1654998;85;21605;-67
2021/05/31 04:07:00;;;;;;;2.40;2.30;;;;;;;10.64;82.09;94501.39;1652217;86;21813;-67
2021/05/31 04:11:56;;;;;;;2.02;1.92;;;;;;;10.67;81.00;94499.11;1655241;85;21150;-65
2021/05/31 04:14:23;;;;;;;2.12;2.00;;;;;;;10.68;80.93;94513.05;1654348;86;21634;-67
2021/05/31 04:16:58;;;;;;;5.87;4.75;;;;;;;10.70;81.27;94502.35;1654487;85;21100;-66
2021/05/31 04:19:25;;;;;;;2.42;2.30;;;;;;;10.70;80.89;94509.23;1654379;85;22081;-68
2021/05/31 04:21:53;;;;;;;2.00;1.90;;;;;;;10.69;81.35;94493.95;1644187;86;21543;-67
2021/05/31 04:24:21;;;;;;;2.30;2.20;;;;;;;10.70;81.21;94504.48;1649941;86;20981;-67
2021/05/31 04:26:48;;;;;;;3.85;2.90;;;;;;;10.70;81.02;94509.23;1647705;86;21940;-68
2021/05/31 04:29:15;;;;;;;2.50;2.40;;;;;;;10.67;80.03;94505.98;1598737;88;21007;-67
2021/05/31 04:31:42;;;;;;;2.00;1.90;;;;;;;10.64;79.36;94509.05;1603459;88;21204;-67
2021/05/31 04:34:11;;;;;;;2.05;1.95;;;;;;;10.65;79.82;94513.93;1599134;88;21134;-68
2021/05/31 04:36:39;;;;;;;2.58;1.90;;;;;;;10.64;80.23;94511.02;1602372;88;21689;-68
2021/05/31 04:39:06;;;;;;;2.20;2.10;;;;;;;10.67;80.23;94510.11;1599566;88;21162;-65
2021/05/31 04:41:33;;;;;;;2.22;2.12;;;;;;;10.73;80.64;94509.70;1597583;88;21103;-68
2021/05/31 04:44:00;;;;;;;2.27;2.08;;;;;;;10.77;80.76;94508.34;1599614;88;21676;-67
2021/05/31 04:46:27;;;;;;;5.17;4.37;;;;;;;10.81;80.47;94503.45;1601314;88;21120;-67
2021/05/31 04:48:56;;;;;;;2.85;2.65;;;;;;;10.86;80.25;94500.10;1634509;85;21072;-67
2021/05/31 04:51:24;;;;;;;2.33;2.22;;;;;;;10.93;80.45;94499.80;1617602;87;21079;-66
2021/05/31 04:53:53;;;;;;;2.35;2.20;;;;;;;11.00;81.00;94506.41;1596190;88;21581;-68
2021/05/31 04:56:20;;;;;;;8.55;6.42;;;;;;;11.03;80.38;94505.50;1596974;86;21242;-67
2021/05/31 04:58:46;;;;;;;4.05;3.75;;;;;;;11.01;80.70;94505.19;1609756;87;21118;-66
2021/05/31 05:01:13;;;;;;;3.90;3.50;;;;;;;11.00;80.56;94503.66;1597787;87;21091;-68
2021/05/31 05:03:40;;;;;;;2.95;2.75;;;;;;;10.95;80.45;94511.15;1611801;87;21151;-68
2021/05/31 05:06:07;;;;;;;2.67;2.47;;;;;;;10.94;81.10;94510.38;1636038;86;21009;-67
2021/05/31 05:08:34;;;;;;;3.10;2.80;;;;;;;10.93;81.09;94508.84;1651373;86;22170;-67
2021/05/31 05:11:01;;;;;;;2.92;2.65;;;;;;;10.93;81.30;94512.97;1650917;85;21586;-67
2021/05/31 05:13:27;;;;;;;3.35;3.10;;;;;;;10.92;82.00;94505.94;1650680;85;21021;-69
2021/05/31 05:15:54;;;;;;;4.28;3.30;;;;;;;10.95;82.69;94510.52;1647820;85;21102;-69
2021/05/31 05:18:21;;;;;;;3.15;2.60;;;;;;;10.97;82.87;94514.96;1650414;86;21189;-69
2021/05/31 05:20:48;;;;;;;3.67;3.37;;;;;;;10.96;83.14;94517.56;1648541;85;21703;-68
2021/05/31 05:23:23;;;;;;;6.55;4.30;;;;;;;10.93;83.25;94510.22;1598532;85;21132;-68
2021/05/31 05:25:57;;;;;;;5.97;4.45;;;;;;;10.86;83.71;94514.64;1636125;86;21674;-66
2021/05/31 05:28:32;;;;;;;7.00;4.65;;;;;;;10.91;84.11;94508.53;1639314;85;21068;-68
2021/05/31 05:31:09;;;;;;;6.78;6.12;;;;;;;10.95;83.74;94510.52;1621301;85;21539;-67
2021/05/31 05:33:37;;;;;;;7.92;6.87;;;;;;;10.97;83.90;94508.70;1641767;85;21340;-69
2021/05/31 05:44:17;;;;;;;10.05;7.45;;;;;;;11.32;84.41;94512.75;1631463;85;21072;-69
2021/05/31 05:49:19;;;;;;;7.58;6.37;;;;;;;11.34;83.55;94506.92;1629313;86;21199;-68
2021/05/31 05:51:52;;;;;;;11.18;9.63;;;;;;;11.37;83.60;94505.25;1634419;85;21627;-68
2021/05/31 05:54:22;;;;;;;15.72;11.60;;;;;;;11.40;83.92;94513.98;1647489;85;21120;-64
2021/05/31 05:57:02;;;;;;;11.33;8.68;;;;;;;11.40;83.83;94510.63;1587114;85;21086;-69
2021/05/31 05:59:33;;;;;;;9.10;6.40;;;;;;;11.38;83.81;94506.16;1640436;86;22270;-63
2021/05/31 06:02:00;;;;;;;7.80;6.70;;;;;;;11.35;82.88;94500.82;1613602;85;21252;-67
2021/05/31 06:04:39;;;;;;;12.98;9.23;;;;;;;11.32;82.21;94508.00;1610325;87;21199;-66
2021/05/31 06:07:06;;;;;;;9.58;5.35;;;;;;;11.29;82.27;94513.05;1620835;86;21689;-64
2021/05/31 06:09:43;;;;;;;4.33;3.87;;;;;;;11.28;82.82;94517.02;1594803;86;21178;-66
2021/05/31 06:12:10;;;;;;;4.00;3.62;;;;;;;11.29;83.04;94508.91;1622064;86;21180;-62
2021/05/31 06:14:37;;;;;;;4.83;3.45;;;;;;;11.34;82.75;94506.17;1630882;86;21101;-62
2021/05/31 06:17:05;;;;;;;5.72;4.65;;;;;;;11.37;82.13;94506.00;1633329;86;21105;-62
2021/05/31 06:19:34;;;;;;;5.05;4.55;;;;;;;11.32;82.46;94506.62;1635296;86;21127;-65
2021/05/31 06:22:03;;;;;;;5.87;3.85;;;;;;;11.34;82.46;94502.80;1630465;86;21563;-64
2021/05/31 06:24:30;;;;;;;4.50;3.90;;;;;;;11.35;82.55;94504.95;1625947;85;21357;-65
2021/05/31 06:26:57;;;;;;;4.70;4.30;;;;;;;11.36;82.03;94505.85;1640285;85;21091;-63
2021/05/31 06:29:24;;;;;;;5.65;5.15;;;;;;;11.36;81.83;94499.59;1625716;86;21158;-64
2021/05/31 06:31:51;;;;;;;19.95;9.48;;;;;;;11.34;82.29;94504.17;1644923;85;21102;-63
2021/05/31 06:34:18;;;;;;;11.73;7.20;;;;;;;11.36;82.20;94498.97;1625941;85;21182;-63
2021/05/31 06:36:48;;;;;;;5.47;4.83;;;;;;;11.41;82.20;94501.13;1632273;86;21131;-61
2021/05/31 06:39:14;;;;;;;5.40;4.90;;;;;;;11.49;82.10;94500.97;1627123;86;21106;-58
2021/05/31 06:41:41;;;;;;;6.92;5.37;;;;;;;11.55;82.19;94505.27;1648259;84;21173;-61
2021/05/31 06:44:08;;;;;;;14.93;8.35;;;;;;;11.55;81.84;94499.76;1633266;85;21101;-61
2021/05/31 06:46:34;;;;;;;8.68;6.37;;;;;;;11.50;82.05;94494.23;1625591;86;21146;-60
2021/05/31 06:49:02;;;;;;;11.05;5.47;;;;;;;11.53;82.60;94498.08;1620747;85;21118;-62
2021/05/31 06:51:28;;;;;;;7.72;5.33;;;;;;;11.56;82.59;94507.58;1632455;85;21143;-66
2021/05/31 06:53:55;;;;;;;7.78;6.67;;;;;;;11.56;82.81;94501.31;1643068;85;21130;-64
2021/05/31 06:56:23;;;;;;;6.33;5.70;;;;;;;11.59;83.03;94502.55;1635164;86;21669;-61
2021/05/31 06:58:51;;;;;;;5.37;4.85;;;;;;;11.68;82.41;94505.29;1642577;85;21186;-65
2021/05/31 07:01:17;;;;;;;4.75;4.28;;;;;;;11.72;82.21;94504.52;1632257;85;22962;-65
2021/05/31 07:03:45;;;;;;;5.87;5.28;;;;;;;11.73;81.47;94498.41;1616499;86;21891;-60
2021/05/31 07:06:12;;;;;;;5.87;5.25;;;;;;;11.69;81.58;94502.69;1649266;85;21112;-63
2021/05/31 07:08:38;;;;;;;5.92;5.40;;;;;;;11.70;81.39;94501.46;1628877;86;21224;-63
2021/05/31 07:11:11;;;;;;;5.20;4.50;;;;;;;11.75;80.46;94507.73;1630661;85;21160;-62
2021/05/31 07:13:34;;;;;;;5.55;4.95;;;;;;;11.78;80.34;94505.45;1631297;86;21136;-63
2021/05/31 07:16:00;;;;;;;4.83;4.42;;;;;;;11.81;80.58;94511.42;1646879;85;21138;-63
2021/05/31 07:18:27;;;;;;;3.52;3.20;;;;;;;11.89;80.96;94518.14;1606257;87;21239;-62
2021/05/31 07:20:54;;;;;;;2.90;2.60;;;;;;;12.00;80.18;94524.56;1633749;85;21151;-57
2021/05/31 07:23:21;;;;;;;3.37;3.08;;;;;;;12.01;78.61;94524.71;1636052;85;21035;-57
2021/05/31 07:25:49;;;;;;;2.80;2.60;;;;;;;11.95;78.26;94521.83;1636273;85;21249;-60
2021/05/31 07:28:18;;;;;;;4.65;4.25;;;;;;;11.93;77.87;94519.38;1635889;86;21150;-61
2021/05/31 07:30:45;;;;;;;6.12;5.00;;;;;;;11.98;77.65;94524.27;1629983;86;21050;-62
2021/05/31 07:33:13;;;;;;;4.37;3.98;;;;;;;11.99;77.58;94525.79;1632934;87;21144;-60
2021/05/31 07:35:40;;;;;;;3.42;2.90;;;;;;;11.98;75.62;94526.42;1626484;86;21248;-61
2021/05/31 07:38:13;;;;;;;2.87;2.67;;;;;;;11.96;75.92;94521.98;1646698;85;21163;-64
2021/05/31 07:40:40;;;;;;;2.67;2.47;;;;;;;11.94;75.75;94531.30;1634571;85;21608;-60
2021/05/31 07:43:07;;;;;;;5.53;2.90;;;;;;;11.91;74.64;94534.23;1644164;86;21131;-59
2021/05/31 07:45:34;;;;;;;3.05;2.10;;;;;;;11.87;74.11;94535.75;1609399;86;21110;-63
2021/05/31 07:48:00;;;;;;;4.75;4.30;;;;;;;11.90;74.38;94534.83;1637576;85;21144;-61
2021/05/31 07:50:28;;;;;;;4.03;2.85;;;;;;;11.89;75.39;94529.80;1608739;85;21686;-59
2021/05/31 07:52:58;;;;;;;4.92;2.80;;;;;;;11.90;75.49;94540.34;1628928;86;21644;-61
2021/05/31 07:55:25;;;;;;;2.80;2.60;;;;;;;11.97;75.57;94548.32;1640581;83;21019;-61
2021/05/31 07:57:52;;;;;;;2.50;2.30;;;;;;;11.93;73.72;94549.06;1636179;85;21175;-62
2021/05/31 08:00:22;;;;;;;3.92;3.52;;;;;;;11.86;74.00;94554.90;1636737;86;22333;-65
2021/05/31 08:02:52;;;;;;;3.62;3.30;;;;;;;11.87;75.01;94559.81;1614511;86;21180;-69
2021/05/31 08:05:22;;;;;;;3.37;3.17;;;;;;;11.92;74.09;94558.56;1624061;86;21122;-60
2021/05/31 08:07:48;;;;;;;2.98;2.77;;;;;;;11.84;73.44;94555.97;1628150;86;21634;-65
2021/05/31 08:10:16;;;;;;;4.85;4.37;;;;;;;11.70;72.84;94565.47;1631977;85;21590;-60
2021/05/31 08:12:46;;;;;;;4.35;3.50;;;;;;;11.53;74.44;94569.70;1631803;85;21163;-63
2021/05/31 08:15:13;;;;;;;5.08;2.92;;;;;;;11.48;75.43;94576.58;1627522;85;21137;-62
2021/05/31 08:17:41;;;;;;;5.05;3.08;;;;;;;11.52;73.80;94578.56;1631446;85;21085;-60
2021/05/31 08:20:10;;;;;;;5.20;3.72;;;;;;;11.47;73.13;94576.42;1634874;85;21096;-59
2021/05/31 08:22:38;;;;;;;8.30;4.10;;;;;;;11.55;73.84;94577.65;1639027;85;21142;-62
2021/05/31 08:25:07;;;;;;;3.77;3.47;;;;;;;11.66;73.41;94584.90;1633182;86;21072;-55
2021/05/31 08:27:34;;;;;;;14.68;11.28;;;;;;;11.69;72.66;94579.09;1640418;86;21236;-68
2021/05/31 08:30:02;;;;;;;5.37;4.42;;;;;;;11.64;72.00;94577.70;1635786;85;21087;-56
2021/05/31 08:32:29;;;;;;;6.58;5.80;;;;;;;11.59;71.56;94580.30;1635405;86;21763;-56
2021/05/31 08:34:57;;;;;;;6.40;5.70;;;;;;;11.48;71.50;94591.73;1631184;85;21080;-57
2021/05/31 08:37:24;;;;;;;5.20;4.70;;;;;;;11.39;71.31;94591.69;1632075;85;21231;-60
2021/05/31 08:39:54;;;;;;;11.03;4.85;;;;;;;11.36;70.47;94600.13;1638113;84;21101;-57
2021/05/31 08:42:22;;;;;;;5.90;3.90;;;;;;;11.31;70.52;94602.86;1643802;85;21109;-58
2021/05/31 08:44:49;;;;;;;5.15;3.70;;;;;;;11.29;70.47;94590.16;1641811;85;21098;-59
2021/05/31 08:47:17;;;;;;;4.12;3.40;;;;;;;11.28;71.18;94590.00;1623475;87;21082;-58
2021/05/31 08:49:45;;;;;;;8.98;6.90;;;;;;;11.38;71.03;94591.54;1629960;85;21122;-60
2021/05/31 08:52:11;;;;;;;6.60;4.30;;;;;;;11.47;70.94;94592.95;1620694;86;21201;-57
2021/05/31 08:54:38;;;;;;;6.92;4.20;;;;;;;11.50;69.55;94589.28;1636322;85;21163;-60
2021/05/31 08:57:05;;;;;;;5.60;3.80;;;;;;;11.56;69.18;94592.23;1632071;85;21573;-59
2021/05/31 08:59:32;;;;;;;6.90;5.25;;;;;;;11.51;68.08;94588.69;1646853;84;21589;-60
2021/05/31 09:01:59;;;;;;;7.47;5.10;;;;;;;11.41;69.17;94592.03;1631206;86;21197;-58
2021/05/31 09:04:25;;;;;;;10.23;6.28;;;;;;;11.40;70.92;94594.63;1629390;86;21158;-57
2021/05/31 09:06:56;;;;;;;11.22;5.70;;;;;;;11.44;72.06;94598.00;1628649;85;21654;-58
2021/05/31 09:09:41;;;;;;;13.38;8.38;;;;;;;11.51;70.84;94599.08;1635844;86;21176;-59
2021/05/31 09:12:09;;;;;;;14.53;8.78;;;;;;;11.52;70.83;94592.97;1633957;86;21185;-58
2021/05/31 09:14:37;;;;;;;12.43;10.30;;;;;;;11.50;70.82;94604.44;1631091;85;21256;-60
2021/05/31 09:17:05;;;;;;;9.13;6.08;;;;;;;11.50;70.75;94598.92;1638227;85;21139;-56
2021/05/31 09:19:34;;;;;;;16.23;13.05;;;;;;;11.51;70.39;94598.33;1628876;85;21202;-59
2021/05/31 09:22:05;;;;;;;7.12;5.80;;;;;;;11.48;70.88;94598.62;1640207;86;21177;-58
2021/05/31 09:24:32;;;;;;;8.08;5.90;;;;;;;11.48;70.86;94593.11;1639215;86;21359;-58
2021/05/31 09:27:02;;;;;;;12.07;5.97;;;;;;;11.50;71.42;94589.28;1622338;86;21669;-61
2021/05/31 09:29:29;;;;;;;6.12;5.53;;;;;;;11.52;71.23;94595.73;1631587;86;22054;-58
2021/05/31 09:32:07;;;;;;;7.25;4.15;;;;;;;11.53;70.31;94589.73;1629824;87;22411;-58
2021/05/31 09:34:35;;;;;;;4.87;4.47;;;;;;;11.53;69.92;94588.36;1612020;85;25893;-58
2021/05/31 09:37:03;;;;;;;4.62;3.98;;;;;;;11.53;70.25;94595.88;1561025;89;21174;-58
2021/05/31 09:39:36;;;;;;;6.03;4.92;;;;;;;11.60;70.52;94591.47;1571907;89;22295;-58
2021/05/31 09:42:13;;;;;;;6.25;5.65;;;;;;;11.69;70.63;94586.73;1582018;87;21159;-61
2021/05/31 09:44:43;;;;;;;9.30;4.40;;;;;;;11.84;70.72;94583.54;1570424;88;21058;-58
2021/05/31 09:47:10;;;;;;;6.65;4.78;;;;;;;12.02;70.53;94588.27;1567662;89;21166;-57
2021/05/31 09:49:37;;;;;;;13.03;7.60;;;;;;;12.12;67.79;94590.57;1583416;88;21140;-60
2021/05/31 09:52:06;;;;;;;4.30;3.90;;;;;;;12.15;66.53;94600.70;1570645;89;22261;-60
2021/05/31 09:54:43;;;;;;;5.75;5.10;;;;;;;12.17;66.49;94589.98;1576697;89;21643;-60
2021/05/31 09:57:31;;;;;;;5.40;4.90;;;;;;;12.19;65.45;94593.03;1573639;89;21228;-58
2021/05/31 10:00:16;;;;;;;6.92;5.30;;;;;;;12.25;65.93;94586.30;1569203;89;21090;-59
2021/05/31 10:02:55;;;;;;;7.97;4.67;;;;;;;12.37;66.14;94590.26;1569407;89;21147;-59
2021/05/31 10:05:44;;;;;;;6.12;4.62;;;;;;;12.40;65.19;94590.71;1579215;89;21224;-57
2021/05/31 10:10:43;;;;;;;5.55;4.30;;;;;;;12.40;64.10;94589.33;1562137;89;21642;-60
2021/05/31 10:13:11;;;;;;;14.00;6.37;;;;;;;12.37;64.05;94579.22;1574064;88;21068;-58
2021/05/31 10:15:41;;;;;;;7.65;5.42;;;;;;;12.40;63.94;94576.14;1586900;88;21083;-59
2021/05/31 10:18:10;;;;;;;5.05;3.85;;;;;;;12.48;65.01;94583.63;1569952;89;21730;-59
2021/05/31 10:20:37;;;;;;;7.17;4.85;;;;;;;12.60;64.85;94581.31;1571778;88;21291;-59
2021/05/31 10:23:05;;;;;;;11.70;4.60;;;;;;;12.69;63.70;94567.51;1573911;88;21106;-59
2021/05/31 10:25:32;;;;;;;6.35;4.30;;;;;;;12.75;62.78;94562.25;1584510;89;21568;-58
2021/05/31 10:28:19;;;;;;;5.37;4.70;;;;;;;12.83;61.22;94562.69;1585581;88;21584;-59
2021/05/31 10:30:49;;;;;;;5.42;4.37;;;;;;;12.94;60.78;94565.75;1599432;87;21350;-59
2021/05/31 10:33:22;;;;;;;4.70;4.10;;;;;;;13.07;61.81;94562.17;1574207;89;21674;-59
2021/05/31 10:35:51;;;;;;;6.22;4.90;;;;;;;13.25;60.22;94560.71;1562197;89;21141;-61
2021/05/31 10:38:22;;;;;;;6.12;4.45;;;;;;;13.49;59.54;94561.48;1556427;91;21091;-59
2021/05/31 10:40:52;;;;;;;7.33;4.73;;;;;;;13.63;58.00;94550.48;1564040;89;21669;-58
2021/05/31 10:43:24;;;;;;;7.20;4.80;;;;;;;13.65;57.99;94555.55;1531106;92;21168;-60
2021/05/31 10:46:03;;;;;;;5.22;4.72;;;;;;;13.63;57.81;94549.73;1536390;92;21155;-59
2021/05/31 10:48:43;;;;;;;8.63;4.10;;;;;;;13.69;57.31;94548.61;1552049;91;21129;-59
2021/05/31 10:51:16;;;;;;;6.25;4.00;;;;;;;13.86;58.24;94551.10;1530303;91;21194;-59
2021/05/31 10:53:44;;;;;;;11.93;6.70;;;;;;;14.07;56.77;94547.84;1540139;91;21715;-58
2021/05/31 10:56:25;;;;;;;7.47;5.30;;;;;;;14.27;56.89;94549.39;1535750;91;21632;-61
2021/05/31 10:58:55;;;;;;;12.25;4.83;;;;;;;14.50;56.06;94553.47;1547716;92;22328;-58
2021/05/31 11:01:37;;;;;;;4.15;3.67;;;;;;;14.72;56.10;94550.47;1527189;91;21158;-57
2021/05/31 11:04:16;;;;;;;8.20;4.95;;;;;;;14.90;54.10;94548.10;1523328;92;21062;-58
2021/05/31 11:06:44;;;;;;;9.98;4.80;;;;;;;15.09;53.10;94540.49;1502328;93;21140;-58
2021/05/31 11:09:19;;;;;;;12.53;4.28;;;;;;;15.23;53.03;94543.86;1520968;93;21588;-61
2021/05/31 11:11:51;;;;;;;10.63;4.80;;;;;;;15.29;52.70;94537.80;1532911;92;21139;-59
2021/05/31 11:14:36;;;;;;;9.88;4.70;;;;;;;15.30;52.37;94544.87;1541169;91;21182;-59
2021/05/31 11:17:17;;;;;;;22.05;5.20;;;;;;;15.43;53.04;94541.16;1543971;91;21280;-61
2021/05/31 11:19:50;;;;;;;9.03;6.05;;;;;;;15.78;52.79;94531.39;1541034;91;21780;-59
2021/05/31 11:22:26;;;;;;;11.65;6.62;;;;;;;16.19;50.46;94541.99;1524359;92;21115;-59
2021/05/31 11:25:06;;;;;;;5.45;4.50;;;;;;;16.32;49.33;94537.59;1530848;91;21731;-61
2021/05/31 11:27:38;;;;;;;8.23;6.12;;;;;;;16.27;49.21;94531.97;1528238;91;21677;-58
2021/05/31 11:30:11;;;;;;;6.33;3.92;;;;;;;16.28;50.24;94541.08;1578627;89;27009;-60
2021/05/31 11:32:39;;;;;;;9.68;4.55;;;;;;;16.18;49.40;94533.52;1574591;90;21213;-60
2021/05/31 11:35:08;;;;;;;9.65;5.08;;;;;;;15.96;50.15;94541.60;1582809;89;21088;-61
2021/05/31 11:37:34;;;;;;;7.67;4.45;;;;;;;15.73;51.97;94530.07;1575896;88;21669;-61
2021/05/31 11:40:07;;;;;;;4.55;3.60;;;;;;;15.58;52.59;94530.75;1569371;89;21132;-60
2021/05/31 11:42:38;;;;;;;6.67;4.72;;;;;;;15.48;51.45;94530.75;1582988;90;21667;-59
2021/05/31 11:45:04;;;;;;;6.20;4.00;;;;;;;15.36;52.08;94522.14;1585543;89;21005;-60
2021/05/31 11:47:31;;;;;;;10.93;4.25;;;;;;;15.36;53.46;94526.94;1566766;89;21684;-59
2021/05/31 11:49:59;;;;;;;5.12;3.72;;;;;;;15.32;51.74;94522.97;1578762;89;21103;-59
2021/05/31 11:52:27;;;;;;;5.58;3.52;;;;;;;15.30;52.60;94524.69;1571876;89;21087;-59
2021/05/31 11:54:54;;;;;;;6.10;4.00;;;;;;;15.27;52.66;94525.62;1580178;88;21545;-60
2021/05/31 11:57:22;;;;;;;8.63;3.62;;;;;;;15.21;51.97;94518.61;1586461;89;21143;-60
2021/05/31 11:59:52;;;;;;;4.45;3.92;;;;;;;15.10;52.04;94524.00;1590239;88;21657;-58